createdAt,value
2024-02-24T00:00:28.911Z,7.30
2024-02-24T00:02:56.172Z,6.43
2024-02-24T00:05:26.840Z,7.93
2024-02-24T00:07:54.572Z,7.40
2024-02-24T00:10:22.852Z,10.38
2024-02-24T00:12:50.593Z,7.30
2024-02-24T00:15:17.486Z,8.57
2024-02-24T00:17:44.854Z,8.57
2024-02-24T00:20:12.691Z,7.57
2024-02-24T00:22:39.860Z,9.23
2024-02-24T00:25:07.171Z,6.85
2024-02-24T00:27:34.104Z,8.25
2024-02-24T00:30:00.933Z,8.25
2024-02-24T00:32:27.890Z,8.05
2024-02-24T00:34:54.763Z,6.53
2024-02-24T00:37:21.629Z,8.05
2024-02-24T00:39:48.494Z,8.50
2024-02-24T00:42:15.592Z,8.02
2024-02-24T00:44:42.515Z,7.25
2024-02-24T00:47:09.397Z,9.27
2024-02-24T00:49:36.319Z,7.53
2024-02-24T00:52:03.717Z,8.23
2024-02-24T00:54:30.582Z,8.13
2024-02-24T00:56:57.602Z,9.35
2024-02-24T00:59:24.820Z,8.35
2024-02-24T01:01:51.736Z,8.25
2024-02-24T01:04:21.377Z,8.90
2024-02-24T01:06:52.572Z,9.63
2024-02-24T01:09:21.303Z,8.98
2024-02-24T01:11:48.487Z,8.23
2024-02-24T01:14:15.892Z,8.48
2024-02-24T01:16:45.705Z,9.57
2024-02-24T01:19:12.959Z,10.30
2024-02-24T01:21:43.675Z,9.10
2024-02-24T01:24:10.701Z,9.18
2024-02-24T01:26:38.211Z,8.77
2024-02-24T01:29:05.392Z,8.00
2024-02-24T01:31:33.115Z,7.63
2024-02-24T01:34:00.269Z,8.18
2024-02-24T01:36:27.130Z,8.80
2024-02-24T01:38:56.693Z,8.85
2024-02-24T01:41:23.617Z,10.15
2024-02-24T01:43:51.734Z,7.85
2024-02-24T01:46:18.648Z,7.38
2024-02-24T01:48:46.837Z,8.93
2024-02-24T01:51:16.264Z,9.68
2024-02-24T01:53:44.245Z,7.78
2024-02-24T01:56:11.696Z,7.65
2024-02-24T01:58:39.107Z,9.90
2024-02-24T02:01:09.669Z,10.10
2024-02-24T02:03:38.084Z,9.73
2024-02-24T02:06:05.898Z,7.25
2024-02-24T02:08:33.327Z,7.13
2024-02-24T02:11:00.372Z,6.65
2024-02-24T02:13:27.676Z,7.13
2024-02-24T02:15:57.863Z,8.38
2024-02-24T02:18:25.114Z,6.78
2024-02-24T02:20:53.268Z,8.25
2024-02-24T02:23:21.207Z,7.75
2024-02-24T02:25:48.116Z,6.85
2024-02-24T02:28:15.252Z,7.88
2024-02-24T02:30:42.149Z,7.45
2024-02-24T02:33:12.234Z,9.38
2024-02-24T02:35:39.771Z,8.75
2024-02-24T02:38:11.659Z,7.47
2024-02-24T02:40:38.687Z,9.85
2024-02-24T02:43:06.116Z,7.72
2024-02-24T02:45:33.069Z,9.63
2024-02-24T02:48:00.071Z,8.00
2024-02-24T02:50:27.241Z,7.57
2024-02-24T02:52:54.716Z,7.75
2024-02-24T02:55:22.191Z,9.77
2024-02-24T02:57:50.231Z,9.63
2024-02-24T03:00:18.064Z,7.88
2024-02-24T03:02:45.549Z,8.57
2024-02-24T03:05:12.877Z,8.73
2024-02-24T03:07:39.773Z,7.35
2024-02-24T03:10:07.406Z,8.65
2024-02-24T03:12:34.381Z,7.95
2024-02-24T03:15:01.433Z,8.00
2024-02-24T03:17:28.405Z,7.07
2024-02-24T03:19:55.399Z,10.73
2024-02-24T03:22:22.321Z,11.15
2024-02-24T03:24:49.381Z,10.18
2024-02-24T03:27:17.828Z,7.85
2024-02-24T03:29:44.924Z,8.95
2024-02-24T03:32:11.939Z,10.70
2024-02-24T03:34:38.857Z,8.43
2024-02-24T03:37:05.914Z,8.10
2024-02-24T03:39:32.842Z,9.48
2024-02-24T03:41:59.598Z,7.18
2024-02-24T03:44:26.484Z,10.65
2024-02-24T03:46:54.060Z,9.38
2024-02-24T03:49:20.989Z,8.45
2024-02-24T03:51:48.025Z,9.65
2024-02-24T03:54:14.824Z,8.10
2024-02-24T03:56:41.776Z,7.60
2024-02-24T03:59:08.780Z,8.27
2024-02-24T04:01:35.823Z,9.15
2024-02-24T04:04:02.743Z,9.55
2024-02-24T04:06:29.673Z,10.77
2024-02-24T04:08:56.551Z,10.80
2024-02-24T04:11:24.063Z,8.73
2024-02-24T04:13:51.091Z,9.88
2024-02-24T04:16:21.023Z,11.48
2024-02-24T04:18:47.936Z,9.60
2024-02-24T04:21:14.983Z,11.35
2024-02-24T04:23:41.911Z,8.10
2024-02-24T04:26:08.846Z,9.10
2024-02-24T04:28:35.781Z,9.52
2024-02-24T04:31:02.792Z,11.40
2024-02-24T04:33:29.822Z,12.27
2024-02-24T04:35:56.910Z,9.40
2024-02-24T04:38:23.820Z,7.07
2024-02-24T04:40:50.624Z,9.43
2024-02-24T04:43:17.649Z,8.05
2024-02-24T04:45:45.199Z,8.52
2024-02-24T04:48:12.157Z,9.88
2024-02-24T04:50:39.876Z,10.85
2024-02-24T04:53:06.795Z,10.98
2024-02-24T04:55:33.581Z,10.30
2024-02-24T04:58:00.416Z,12.48
2024-02-24T05:00:27.538Z,9.85
2024-02-24T05:02:54.471Z,11.48
2024-02-24T05:05:21.961Z,11.10
2024-02-24T05:07:48.964Z,13.45
2024-02-24T05:10:16.006Z,10.45
2024-02-24T05:12:49.435Z,13.23
2024-02-24T05:15:19.536Z,10.63
2024-02-24T05:17:46.828Z,9.38
2024-02-24T05:20:14.335Z,12.55
2024-02-24T05:22:41.358Z,11.68
2024-02-24T05:25:12.108Z,10.13
2024-02-24T05:27:39.163Z,10.25
2024-02-24T05:30:06.743Z,11.45
2024-02-24T05:32:33.812Z,14.38
2024-02-24T05:35:00.969Z,14.50
2024-02-24T05:37:28.031Z,13.98
2024-02-24T05:39:55.157Z,12.13
2024-02-24T05:42:22.032Z,14.55
2024-02-24T05:44:49.148Z,13.70
2024-02-24T05:47:15.907Z,14.82
2024-02-24T05:49:42.832Z,10.85
2024-02-24T05:52:10.831Z,12.38
2024-02-24T05:54:40.920Z,13.40
2024-02-24T05:57:08.914Z,16.52
2024-02-24T05:59:36.689Z,16.50
2024-02-24T06:02:03.893Z,14.65
2024-02-24T06:04:30.987Z,14.80
2024-02-24T06:06:58.853Z,14.02
2024-02-24T06:09:26.159Z,15.70
2024-02-24T06:11:53.221Z,16.25
2024-02-24T06:14:20.247Z,10.73
2024-02-24T06:16:47.158Z,14.73
2024-02-24T06:19:14.149Z,15.85
2024-02-24T06:21:41.484Z,12.85
2024-02-24T06:24:08.489Z,16.65
2024-02-24T06:26:35.392Z,16.52
2024-02-24T06:29:02.299Z,14.68
2024-02-24T06:31:29.209Z,14.98
2024-02-24T06:33:56.247Z,14.80
2024-02-24T06:36:23.338Z,18.83
2024-02-24T06:38:50.461Z,15.80
2024-02-24T06:41:19.443Z,17.70
2024-02-24T06:43:47.961Z,19.00
2024-02-24T06:46:15.806Z,18.33
2024-02-24T06:48:43.465Z,19.27
2024-02-24T06:51:10.885Z,16.38
2024-02-24T06:53:37.898Z,15.60
2024-02-24T06:56:11.525Z,16.88
2024-02-24T06:58:38.780Z,15.90
2024-02-24T07:01:05.997Z,16.45
2024-02-24T07:03:34.625Z,18.45
2024-02-24T07:06:02.946Z,14.85
2024-02-24T07:08:30.138Z,12.73
2024-02-24T07:10:57.286Z,15.45
2024-02-24T07:13:24.521Z,15.48
2024-02-24T07:15:51.466Z,16.10
2024-02-24T07:18:18.492Z,17.38
2024-02-24T07:20:46.034Z,16.77
2024-02-24T07:23:13.226Z,16.13
2024-02-24T07:25:40.454Z,14.32
2024-02-24T07:28:07.746Z,18.48
2024-02-24T07:30:34.745Z,16.50
2024-02-24T07:33:02.437Z,17.05
2024-02-24T07:35:29.590Z,18.67
2024-02-24T07:37:56.595Z,19.27
2024-02-24T07:40:23.693Z,15.40
2024-02-24T07:42:51.844Z,19.20
2024-02-24T07:45:18.749Z,16.60
2024-02-24T07:47:45.791Z,15.18
2024-02-24T07:50:13.315Z,18.30
2024-02-24T07:52:40.362Z,14.88
2024-02-24T07:55:08.016Z,15.70
2024-02-24T07:57:34.957Z,14.48
2024-02-24T08:00:03.077Z,15.38
2024-02-24T08:02:32.901Z,15.20
2024-02-24T08:05:00.312Z,16.52
2024-02-24T08:07:27.434Z,12.77
2024-02-24T08:09:54.334Z,13.10
2024-02-24T08:12:21.455Z,16.02
2024-02-24T08:14:48.399Z,15.27
2024-02-24T08:17:15.574Z,13.30
2024-02-24T08:19:43.407Z,14.70
2024-02-24T08:22:10.496Z,12.63
2024-02-24T08:24:37.481Z,11.18
2024-02-24T08:27:05.040Z,14.05
2024-02-24T08:29:33.147Z,11.82
2024-02-24T08:32:00.232Z,10.68
2024-02-24T08:34:27.062Z,10.43
2024-02-24T08:36:54.537Z,8.50
2024-02-24T08:39:21.377Z,9.98
2024-02-24T08:41:48.261Z,10.95
2024-02-24T08:44:15.473Z,12.07
2024-02-24T08:46:42.592Z,8.98
2024-02-24T08:49:09.429Z,10.45
2024-02-24T08:51:36.365Z,8.00
2024-02-24T08:54:03.678Z,10.50
2024-02-24T08:56:30.954Z,8.13
2024-02-24T08:58:57.844Z,8.38
2024-02-24T09:01:24.934Z,7.55
2024-02-24T09:03:52.066Z,7.22
2024-02-24T09:06:19.304Z,6.35
2024-02-24T09:08:46.435Z,13.45
2024-02-24T09:11:13.591Z,6.53
2024-02-24T09:13:40.565Z,8.13
2024-02-24T09:16:07.608Z,6.22
2024-02-24T09:18:34.584Z,5.13
2024-02-24T09:21:01.672Z,5.68
2024-02-24T09:23:28.510Z,3.10
2024-02-24T09:25:55.514Z,5.90
2024-02-24T09:28:22.382Z,4.55
2024-02-24T09:30:49.239Z,8.73
2024-02-24T09:33:16.334Z,5.47
2024-02-24T09:35:43.421Z,7.05
2024-02-24T09:38:10.511Z,5.00
2024-02-24T09:40:37.544Z,7.47
2024-02-24T09:43:06.267Z,5.00
2024-02-24T09:45:35.984Z,4.78
2024-02-24T09:48:04.075Z,5.05
2024-02-24T09:50:31.720Z,5.13
2024-02-24T09:52:58.847Z,3.30
2024-02-24T09:55:26.320Z,4.00
2024-02-24T09:57:57.182Z,6.15
2024-02-24T10:00:24.819Z,6.57
2024-02-24T10:02:51.834Z,5.30
2024-02-24T10:05:18.968Z,5.60
2024-02-24T10:07:49.158Z,5.47
2024-02-24T10:10:18.267Z,3.63
2024-02-24T10:12:59.489Z,5.65
2024-02-24T10:15:27.288Z,5.18
2024-02-24T10:18:00.723Z,4.47
2024-02-24T10:20:28.806Z,5.65
2024-02-24T10:22:56.221Z,5.25
2024-02-24T10:25:23.684Z,6.18
2024-02-24T10:27:51.027Z,4.90
2024-02-24T10:30:20.967Z,3.90
2024-02-24T10:32:53.657Z,4.40
2024-02-24T10:35:21.128Z,4.25
2024-02-24T10:38:09.578Z,7.05
2024-02-24T10:40:39.624Z,5.15
2024-02-24T10:43:07.554Z,3.03
2024-02-24T10:45:34.664Z,4.47
2024-02-24T10:48:02.251Z,3.45
2024-02-24T10:50:29.372Z,4.90
2024-02-24T10:52:59.194Z,4.32
2024-02-24T10:55:27.558Z,4.55
2024-02-24T10:57:56.138Z,2.20
2024-02-24T11:00:36.142Z,3.58
2024-02-24T11:03:06.019Z,3.13
2024-02-24T11:05:34.889Z,2.97
2024-02-24T11:08:03.307Z,3.08
2024-02-24T11:10:35.294Z,3.47
2024-02-24T11:13:03.718Z,2.63
2024-02-24T11:15:30.678Z,2.55
2024-02-24T11:17:59.286Z,3.03
2024-02-24T11:20:38.932Z,2.50
2024-02-24T11:23:27.265Z,2.70
2024-02-24T11:26:13.822Z,2.80
2024-02-24T11:28:42.979Z,2.88
2024-02-24T11:31:10.005Z,2.35
2024-02-24T11:33:39.284Z,2.13
2024-02-24T11:36:07.329Z,3.45
2024-02-24T11:38:35.180Z,3.90
2024-02-24T11:41:06.205Z,3.40
2024-02-24T11:43:34.084Z,4.82
2024-02-24T11:46:02.399Z,4.40
2024-02-24T11:48:29.642Z,1.92
2024-02-24T11:50:57.050Z,2.33
2024-02-24T11:53:24.890Z,2.00
2024-02-24T11:55:51.965Z,3.53
2024-02-24T11:58:19.343Z,1.60
2024-02-24T12:00:47.129Z,2.50
2024-02-24T12:03:15.446Z,3.80
2024-02-24T12:05:43.642Z,3.08
2024-02-24T12:08:14.497Z,4.15
2024-02-24T12:10:44.108Z,3.33
2024-02-24T12:13:14.571Z,4.70
2024-02-24T12:15:44.438Z,1.58
2024-02-24T12:18:12.428Z,1.15
2024-02-24T12:20:44.768Z,0.17
2024-02-24T12:23:12.577Z,1.55
2024-02-24T12:25:39.572Z,3.20
2024-02-24T12:28:06.995Z,0.75
2024-02-24T12:30:39.497Z,0.80
2024-02-24T12:33:12.287Z,3.28
2024-02-24T12:35:42.014Z,0.75
2024-02-24T12:38:18.181Z,0.40
2024-02-24T12:40:47.832Z,6.28
2024-02-24T12:43:14.863Z,3.45
2024-02-24T12:45:41.871Z,3.97
2024-02-24T12:48:09.353Z,5.18
2024-02-24T12:50:38.051Z,2.90
2024-02-24T12:53:08.158Z,5.63
2024-02-24T12:55:35.026Z,6.53
2024-02-24T12:58:01.952Z,2.13
2024-02-24T13:00:29.123Z,1.20
2024-02-24T13:03:00.870Z,2.33
2024-02-24T13:07:55.547Z,1.80
2024-02-24T13:10:23.326Z,0.40
2024-02-24T13:12:50.444Z,0.57
2024-02-24T13:15:17.672Z,0.20
2024-02-24T13:17:44.662Z,0.52
2024-02-24T13:20:11.747Z,0.03
2024-02-24T13:22:41.682Z,0.22
2024-02-24T13:25:11.505Z,0.35
2024-02-24T13:27:38.425Z,1.42
2024-02-24T13:30:06.377Z,0.65
2024-02-24T13:32:33.624Z,0.15
2024-02-24T13:35:00.535Z,1.35
2024-02-24T13:37:27.557Z,0.30
2024-02-24T13:39:54.984Z,5.55
2024-02-24T13:42:21.745Z,2.97
2024-02-24T13:44:48.576Z,2.75
2024-02-24T13:47:16.439Z,3.30
2024-02-24T13:49:43.601Z,1.52
2024-02-24T13:52:10.452Z,3.45
2024-02-24T13:54:38.058Z,0.10
2024-02-24T13:57:05.482Z,0.80
2024-02-24T13:59:34.125Z,0.55
2024-02-24T14:02:01.026Z,0.40
2024-02-24T14:04:28.108Z,1.08
2024-02-24T14:06:57.249Z,2.65
2024-02-24T14:09:24.302Z,1.23
2024-02-24T14:11:53.317Z,0.70
2024-02-24T14:14:20.434Z,1.23
2024-02-24T14:16:48.487Z,0.10
2024-02-24T14:19:15.385Z,0.20
2024-02-24T14:21:42.272Z,1.10
2024-02-24T14:24:09.030Z,1.73
2024-02-24T14:26:36.244Z,0.28
2024-02-24T14:29:03.804Z,1.95
2024-02-24T14:31:32.284Z,0.57
2024-02-24T14:34:00.844Z,0.30
2024-02-24T14:36:28.162Z,1.48
2024-02-24T14:38:55.190Z,3.30
2024-02-24T14:41:22.955Z,1.23
2024-02-24T14:43:50.179Z,2.00
2024-02-24T14:46:16.987Z,0.85
2024-02-24T14:48:44.013Z,3.08
2024-02-24T14:51:11.019Z,1.88
2024-02-24T14:53:37.914Z,0.40
2024-02-24T14:56:05.504Z,1.20
2024-02-24T14:58:32.289Z,2.47
2024-02-24T15:00:59.975Z,6.40
2024-02-24T15:03:26.921Z,4.32
2024-02-24T15:05:53.850Z,3.50
2024-02-24T15:08:21.011Z,15.57
2024-02-24T15:10:47.796Z,7.60
2024-02-24T15:13:20.144Z,12.85
2024-02-24T15:15:50.037Z,15.15
2024-02-24T15:18:16.953Z,15.45
2024-02-24T15:20:44.906Z,11.75
2024-02-24T15:23:13.780Z,12.00
2024-02-24T15:25:40.693Z,8.40
2024-02-24T15:28:07.657Z,6.18
2024-02-24T15:30:34.416Z,2.90
2024-02-24T15:33:02.474Z,4.32
2024-02-24T15:35:30.052Z,6.53
2024-02-24T15:37:56.941Z,7.43
2024-02-24T15:40:23.644Z,3.75
2024-02-24T15:42:50.334Z,3.90
2024-02-24T15:45:17.184Z,6.65
2024-02-24T15:47:44.100Z,3.45
2024-02-24T15:50:11.090Z,3.40
2024-02-24T15:52:38.017Z,5.97
2024-02-24T15:55:05.114Z,5.05
2024-02-24T15:57:31.849Z,2.92
2024-02-24T15:59:58.685Z,2.97
2024-02-24T16:02:25.578Z,4.05
2024-02-24T16:04:52.524Z,2.65
2024-02-24T16:07:19.433Z,4.85
2024-02-24T16:09:46.171Z,3.75
2024-02-24T16:12:13.043Z,2.70
2024-02-24T16:14:39.918Z,3.75
2024-02-24T16:17:06.943Z,4.32
2024-02-24T16:19:33.961Z,2.63
2024-02-24T16:22:00.731Z,5.53
2024-02-24T16:24:30.055Z,3.15
2024-02-24T16:26:57.929Z,15.35
2024-02-24T16:29:24.987Z,11.65
2024-02-24T16:31:51.815Z,12.90
2024-02-24T16:34:18.760Z,9.52
2024-02-24T16:36:45.867Z,8.30
2024-02-24T16:39:12.839Z,17.95
2024-02-24T16:41:40.824Z,15.68
2024-02-24T16:44:10.681Z,15.38
2024-02-24T16:46:44.095Z,15.75
2024-02-24T16:49:11.146Z,10.80
2024-02-24T16:51:38.105Z,10.32
2024-02-24T16:54:05.046Z,9.15
2024-02-24T16:56:34.329Z,9.00
2024-02-24T16:59:01.218Z,6.65
2024-02-24T17:01:28.701Z,3.40
2024-02-24T17:03:55.721Z,5.45
2024-02-24T17:06:22.673Z,4.60
2024-02-24T17:08:49.947Z,4.25
2024-02-24T17:11:20.949Z,4.45
2024-02-24T17:13:48.096Z,2.80
2024-02-24T17:16:15.305Z,2.45
2024-02-24T17:18:42.372Z,2.33
2024-02-24T17:21:09.444Z,1.45
2024-02-24T17:23:38.864Z,1.38
2024-02-24T17:26:06.113Z,2.17
2024-02-24T17:28:32.992Z,0.75
2024-02-24T17:31:00.494Z,1.50
2024-02-24T17:33:27.293Z,2.17
2024-02-24T17:35:54.238Z,1.00
2024-02-24T17:38:25.396Z,2.47
2024-02-24T17:40:52.242Z,3.63
2024-02-24T17:43:19.046Z,2.13
2024-02-24T17:45:45.792Z,4.13
2024-02-24T17:48:12.777Z,3.85
2024-02-24T17:50:39.659Z,3.10
2024-02-24T17:53:06.418Z,3.70
2024-02-24T17:55:33.383Z,6.22
2024-02-24T17:58:00.174Z,3.03
2024-02-24T18:00:28.557Z,6.75
2024-02-24T18:02:56.304Z,3.10
2024-02-24T18:05:23.313Z,3.17
2024-02-24T18:07:50.090Z,4.32
2024-02-24T18:10:17.465Z,3.88
2024-02-24T18:12:44.270Z,2.85
2024-02-24T18:15:12.506Z,3.70
2024-02-24T18:17:39.673Z,5.18
2024-02-24T18:20:10.443Z,2.47
2024-02-24T18:22:38.046Z,3.15
2024-02-24T18:25:07.520Z,2.03
2024-02-24T18:27:34.257Z,2.22
2024-02-24T18:30:04.577Z,4.03
2024-02-24T18:32:33.194Z,4.53
2024-02-24T18:35:00.082Z,3.95
2024-02-24T18:37:26.944Z,4.00
2024-02-24T18:39:55.908Z,5.47
2024-02-24T18:42:23.823Z,7.18
2024-02-24T18:44:50.756Z,8.68
2024-02-24T18:47:17.650Z,5.30
2024-02-24T18:49:44.365Z,7.38
2024-02-24T18:52:12.949Z,4.13
2024-02-24T18:54:39.895Z,5.88
2024-02-24T18:57:06.974Z,6.35
2024-02-24T18:59:33.844Z,3.80
2024-02-24T19:02:00.609Z,4.85
2024-02-24T19:04:27.268Z,6.68
2024-02-24T19:06:54.261Z,11.90
2024-02-24T19:09:21.267Z,10.18
2024-02-24T19:11:48.689Z,7.22
2024-02-24T19:14:15.825Z,7.88
2024-02-24T19:16:42.665Z,7.82
2024-02-24T19:19:09.647Z,7.05
2024-02-24T19:21:36.426Z,6.40
2024-02-24T19:24:03.312Z,6.53
2024-02-24T19:26:30.236Z,5.28
2024-02-24T19:28:56.942Z,5.85
2024-02-24T19:31:23.691Z,6.15
2024-02-24T19:33:50.390Z,4.45
2024-02-24T19:36:17.319Z,6.68
2024-02-24T19:38:44.143Z,7.75
2024-02-24T19:41:10.892Z,7.75
2024-02-24T19:43:37.532Z,6.80
2024-02-24T19:46:04.289Z,5.22
2024-02-24T19:48:31.185Z,7.90
2024-02-24T19:50:58.855Z,6.40
2024-02-24T19:53:25.824Z,8.00
2024-02-24T19:55:52.558Z,9.13
2024-02-24T19:58:28.776Z,7.32
2024-02-24T20:01:02.307Z,8.25
2024-02-24T20:03:29.031Z,7.32
2024-02-24T20:05:55.959Z,7.50
2024-02-24T20:08:22.797Z,8.13
2024-02-24T20:10:49.716Z,10.68
2024-02-24T20:13:16.680Z,11.73
2024-02-24T20:15:43.361Z,8.63
2024-02-24T20:18:10.332Z,7.10
2024-02-24T20:20:37.062Z,6.80
2024-02-24T20:23:04.008Z,4.32
2024-02-24T20:25:30.763Z,5.95
2024-02-24T20:27:57.462Z,6.95
2024-02-24T20:30:24.097Z,5.38
2024-02-24T20:32:53.919Z,6.53
2024-02-24T20:35:21.422Z,5.88
2024-02-24T20:37:48.768Z,4.15
2024-02-24T20:40:16.001Z,7.80
2024-02-24T20:42:42.729Z,6.88
2024-02-24T20:45:09.947Z,3.50
2024-02-24T20:47:36.731Z,3.95
2024-02-24T20:50:03.864Z,2.97
2024-02-24T20:52:30.593Z,2.50
2024-02-24T20:54:57.341Z,1.50
2024-02-24T20:57:24.157Z,2.75
2024-02-24T20:59:51.836Z,5.10
2024-02-24T21:02:18.920Z,2.75
2024-02-24T21:04:45.669Z,4.03
2024-02-24T21:07:12.360Z,2.30
2024-02-24T21:09:39.026Z,3.40
2024-02-24T21:12:06.602Z,4.63
2024-02-24T21:14:33.348Z,1.60
2024-02-24T21:17:00.281Z,1.48
2024-02-24T21:19:27.030Z,2.35
2024-02-24T21:21:56.038Z,1.45
2024-02-24T21:24:22.809Z,2.13
2024-02-24T21:26:49.537Z,1.52
2024-02-24T21:29:16.274Z,1.10
2024-02-24T21:31:43.064Z,1.73
2024-02-24T21:34:09.905Z,1.25
2024-02-24T21:36:37.947Z,0.80
2024-02-24T21:39:05.224Z,0.95
2024-02-24T21:41:37.457Z,1.10
2024-02-24T21:44:05.168Z,0.68
2024-02-24T21:46:32.475Z,0.55
2024-02-24T21:49:00.467Z,0.70
2024-02-24T21:51:27.292Z,0.90
2024-02-24T21:53:54.256Z,0.85
2024-02-24T21:56:24.347Z,0.82
2024-02-24T21:58:51.249Z,1.25
2024-02-24T22:01:20.030Z,1.83
2024-02-24T22:03:47.556Z,2.25
2024-02-24T22:06:14.580Z,1.63
2024-02-24T22:08:41.348Z,1.70
2024-02-24T22:11:08.226Z,2.25
2024-02-24T22:13:35.441Z,1.95
2024-02-24T22:16:02.247Z,2.53
2024-02-24T22:18:29.461Z,2.05
2024-02-24T22:20:56.439Z,3.17
2024-02-24T22:23:23.378Z,1.92
2024-02-24T22:25:50.281Z,1.95
2024-02-24T22:28:17.109Z,2.45
2024-02-24T22:30:45.145Z,1.80
2024-02-24T22:33:12.185Z,3.00
2024-02-24T22:35:39.051Z,7.43
2024-02-24T22:38:05.825Z,5.13
2024-02-24T22:40:33.054Z,5.00
2024-02-24T22:43:00.048Z,5.10
2024-02-24T22:45:26.909Z,8.57
2024-02-24T22:47:53.836Z,4.72
2024-02-24T22:50:20.746Z,3.88
2024-02-24T22:52:47.473Z,6.18
2024-02-24T22:55:14.273Z,4.18
2024-02-24T22:57:40.967Z,4.72
2024-02-24T23:00:14.677Z,3.47
2024-02-24T23:02:41.808Z,4.63
2024-02-24T23:05:08.995Z,6.57
2024-02-24T23:07:36.047Z,5.53
2024-02-24T23:10:03.978Z,9.25
2024-02-24T23:12:30.850Z,6.28
2024-02-24T23:14:57.668Z,4.72
2024-02-24T23:17:24.566Z,6.60
2024-02-24T23:19:51.324Z,6.35
2024-02-24T23:22:18.099Z,5.50
2024-02-24T23:24:45.334Z,8.25
2024-02-24T23:27:12.510Z,5.82
2024-02-24T23:29:39.576Z,6.30
2024-02-24T23:32:07.062Z,6.30
2024-02-24T23:34:34.017Z,7.03
2024-02-24T23:37:01.369Z,5.93
2024-02-24T23:39:28.333Z,5.50
2024-02-24T23:41:55.125Z,7.55
2024-02-24T23:44:21.926Z,5.70
2024-02-24T23:46:48.858Z,5.53
2024-02-24T23:49:17.352Z,5.03
2024-02-24T23:51:44.531Z,7.32
2024-02-24T23:54:11.354Z,5.78
2024-02-24T23:56:38.366Z,6.43
2024-02-24T23:59:05.099Z,6.22
